Oak Island, Minnesota
Current Conditions -  °F | °C
As of 10:14 PM on Sunday 25 Jan 2015 (Local Time) from KFGN Reporting Station
Moderate Snow Moderate Snow  
Wind Chill:   Ceiling: 1000
Heat Index: 19°   Visibility: 1mi
Dew Point: 16°   Wind: 17mph
Humidity: 86%   Direction: 170°S
Pressure: 29.68"   Gusts: NA
Location:  49.3°N, 94.86°W
Report Text: KFGN 260414Z AUTO 17015KT 1SM SN OVC010 M07/M09 A2968 RMK AO2
Loading
Personal Weather Stations






























Interactive Weather Map New forecast layout! Learn more

10-Day Weather Forecast

Advertisements
Track Severe Weather on mobile